Kontakt oss PDF Skriv ut

Adresse:
Kjevik flyklubb
4657 Kjevik

E-post:
post@kjevikflyklubb.no

Webmaster
R S Løvland

Kontonummer
Flyleie: 2840.32.05259

Logo

 

 
 
METAR
2018/11/17 19:50 ENCN 171950Z 34005KT 9999 BKN017 06/04 Q1040
TAF
2018/11/17 18:38 TAF ENCN 171700Z 1718/1722 03005KT 9999 BKN020
LN-KFK
Operativ VFR-natt
VFR dag
07:33 - 16:52
Brannvakt
Inaktiv
Banner
Banner
Banner
Banner
Banner